Bookmark and Share
Track history (hours):
 

Abboud-g

Last reported at 2014-Apr-23 01:10 UTC. Time now 2014-Apr-24 09:39 UTC.
Position N 40°25' E 026°44'.

Length 146 m; draft 5 m.

Type: Cargo ship. MMSI: 353627000.

NotesDate/timePositionNaut miles runAvg speedWind from/ knotsBaromVisibWave heightAir tempDewpointWater temp
2014-Apr-23 01:10N 40°25' E 026°44'810.3
2014-Apr-23 00:22N 40°19' E 026°37'31 8.0
2014-Apr-22 20:31N 39°59' E 026°05'7 6.5
2014-Apr-22 19:23N 39°55' E 025°57'13610.5
2014-Apr-22 06:24N 37°40' E 025°51'1111.5
2014-Apr-22 05:25N 37°28' E 025°54'1011.6
2014-Apr-22 04:32N 37°22' E 026°04'1511.4
2014-Apr-22 03:11N 37°12' E 026°19'711.5
2014-Apr-22 02:33N 37°08' E 026°26'1211.5
2014-Apr-22 01:33N 37°00' E 026°37'1111.4
2014-Apr-22 00:33N 36°51' E 026°45'2311.5
2014-Apr-21 22:33N 36°32' E 027°01'10111.2
2014-Apr-21 13:33N 34°59' E 027°50'5210.1
2014-Apr-21 08:22N 34°11' E 028°14'910.1
2014-Apr-21 07:26N 34°02' E 028°18'18 8.9
2014-Apr-21 05:27N 33°46' E 028°27'9 9.9
2014-Apr-21 04:33N 33°38' E 028°32'2110.1
2014-Apr-21 02:31N 33°19' E 028°43'108 9.8
2014-Apr-20 15:29N 31°40' E 029°33'9 9.1
2014-Apr-20 14:32N 31°32' E 029°37'  

Dump ship's entire track history

sailing weather and tide predictions

Abboud-g — 3EMT6 — position and weather